Time;durP1;ratioP1;P1;durP2;ratioP2;P2;SDS_P1;SDS_P2;PMS_P1;PMS_P2;Temp;Humidity;BMP_temperature;BMP_pressure;BME280_temperature;BME280_humidity;BME280_pressure;Samples;Min_cycle;Max_cycle;Signal;HPM_P1;HPM_P2
2023/11/22 00:00:52;;;;;;;;;15.00;11.00;;;;;;;;5076729;27;45474;-68
2023/11/22 00:03:17;;;;;;;;;10.67;9.67;;;;;;;;5076804;27;45290;-70
2023/11/22 00:05:43;;;;;;;;;14.00;13.33;;;;;;;;5076011;27;46332;-68
2023/11/22 00:08:08;;;;;;;;;15.00;13.67;;;;;;;;5076510;27;45314;-70
2023/11/22 00:10:34;;;;;;;;;14.33;12.00;;;;;;;;5076318;27;45619;-69
2023/11/22 00:12:59;;;;;;;;;12.33;10.33;;;;;;;;5076406;27;45331;-68
2023/11/22 00:15:25;;;;;;;;;14.00;11.67;;;;;;;;5079582;28;47464;-68
2023/11/22 00:17:50;;;;;;;;;13.00;13.00;;;;;;;;5079958;27;45367;-68
2023/11/22 00:20:17;;;;;;;;;17.00;14.33;;;;;;;;5079890;27;45337;-68
2023/11/22 00:22:44;;;;;;;;;16.33;14.67;;;;;;;;5079903;27;45496;-68
2023/11/22 00:25:12;;;;;;;;;12.67;12.67;;;;;;;;5079166;27;45542;-69
2023/11/22 00:27:37;;;;;;;;;16.00;12.00;;;;;;;;5080032;27;45228;-70
2023/11/22 00:30:04;;;;;;;;;19.00;13.33;;;;;;;;5079093;27;45486;-70
2023/11/22 00:32:29;;;;;;;;;25.33;17.67;;;;;;;;5078871;27;45593;-68
2023/11/22 00:34:54;;;;;;;;;19.67;13.33;;;;;;;;5079244;27;46379;-68
2023/11/22 00:37:19;;;;;;;;;21.33;14.67;;;;;;;;5079193;27;45514;-71
2023/11/22 00:39:45;;;;;;;;;17.67;15.67;;;;;;;;5079261;27;45191;-68
2023/11/22 00:42:10;;;;;;;;;17.33;14.00;;;;;;;;5079998;27;45550;-68
2023/11/22 00:44:36;;;;;;;;;20.67;18.33;;;;;;;;5078766;27;45399;-68
2023/11/22 00:47:01;;;;;;;;;19.67;15.00;;;;;;;;5075990;27;45689;-69
2023/11/22 00:49:26;;;;;;;;;18.33;16.67;;;;;;;;5079035;27;45203;-70
2023/11/22 00:51:52;;;;;;;;;19.67;19.00;;;;;;;;5079371;27;45247;-68
2023/11/22 00:54:19;;;;;;;;;19.33;17.67;;;;;;;;5079375;27;46485;-69
2023/11/22 00:56:45;;;;;;;;;21.67;18.00;;;;;;;;5078715;27;45307;-70
2023/11/22 00:59:10;;;;;;;;;22.00;18.00;;;;;;;;5079459;28;45444;-70
2023/11/22 01:01:35;;;;;;;;;25.00;16.67;;;;;;;;5079329;27;45283;-69
2023/11/22 01:04:01;;;;;;;;;15.33;14.00;;;;;;;;5076807;27;47261;-70
2023/11/22 01:06:26;;;;;;;;;19.00;18.00;;;;;;;;5079316;27;45340;-70
2023/11/22 01:08:52;;;;;;;;;17.33;14.67;;;;;;;;5078865;27;45448;-68
2023/11/22 01:11:17;;;;;;;;;21.00;17.33;;;;;;;;5079621;27;45258;-71
2023/11/22 01:13:43;;;;;;;;;17.00;15.33;;;;;;;;5078731;28;45456;-70
2023/11/22 01:16:08;;;;;;;;;18.33;15.00;;;;;;;;5068458;28;45369;-68
2023/11/22 01:18:34;;;;;;;;;16.33;14.33;;;;;;;;5078763;27;45453;-68
2023/11/22 01:20:59;;;;;;;;;23.00;19.33;;;;;;;;5079308;27;45323;-68
2023/11/22 01:23:25;;;;;;;;;15.33;12.67;;;;;;;;5078530;28;45641;-70
2023/11/22 01:25:50;;;;;;;;;19.33;18.33;;;;;;;;5077117;27;45417;-68
2023/11/22 01:28:17;;;;;;;;;17.33;15.33;;;;;;;;5077058;27;45591;-68
2023/11/22 01:30:42;;;;;;;;;24.33;19.33;;;;;;;;5077640;27;45347;-69
2023/11/22 01:33:07;;;;;;;;;19.67;15.33;;;;;;;;5072020;28;47367;-69
2023/11/22 01:35:33;;;;;;;;;18.33;16.00;;;;;;;;5077581;27;45712;-68
2023/11/22 01:37:59;;;;;;;;;21.33;15.33;;;;;;;;5077867;27;45291;-70
2023/11/22 01:40:26;;;;;;;;;16.33;16.33;;;;;;;;5077859;27;45487;-68
2023/11/22 01:42:51;;;;;;;;;15.33;15.33;;;;;;;;5075338;27;46213;-70
2023/11/22 01:45:17;;;;;;;;;23.25;20.50;;;;;;;;5071729;27;45303;-69
2023/11/22 01:47:43;;;;;;;;;20.67;18.67;;;;;;;;5077573;27;45499;-71
2023/11/22 01:50:09;;;;;;;;;17.33;17.00;;;;;;;;5078344;27;45343;-68
2023/11/22 01:52:34;;;;;;;;;19.33;18.33;;;;;;;;5077591;28;46410;-68
2023/11/22 01:55:00;;;;;;;;;21.25;20.00;;;;;;;;5077794;27;45467;-69
2023/11/22 01:57:25;;;;;;;;;19.67;18.33;;;;;;;;5075632;28;45313;-68
2023/11/22 01:59:51;;;;;;;;;24.00;19.67;;;;;;;;5074375;27;45505;-68
2023/11/22 02:02:16;;;;;;;;;22.33;19.33;;;;;;;;5075160;27;46637;-68
2023/11/22 02:04:41;;;;;;;;;20.67;15.67;;;;;;;;5076386;27;45450;-68
2023/11/22 02:07:06;;;;;;;;;28.00;22.67;;;;;;;;5070762;27;45528;-68
2023/11/22 02:09:32;;;;;;;;;23.67;23.00;;;;;;;;5077883;27;45476;-71
2023/11/22 02:11:57;;;;;;;;;21.67;18.00;;;;;;;;5072912;28;47309;-67
2023/11/22 02:14:23;;;;;;;;;19.00;17.00;;;;;;;;5068785;28;45446;-69
2023/11/22 02:16:48;;;;;;;;;23.67;21.00;;;;;;;;5063245;28;45311;-69
2023/11/22 02:19:16;;;;;;;;;20.33;20.33;;;;;;;;5077339;27;45461;-68
2023/11/22 02:21:42;;;;;;;;;19.33;17.00;;;;;;;;5074490;27;46458;-69
2023/11/22 02:24:07;;;;;;;;;24.33;21.00;;;;;;;;5076382;28;45465;-69
2023/11/22 02:26:33;;;;;;;;;23.00;21.67;;;;;;;;5069291;27;45358;-68
2023/11/22 02:28:59;;;;;;;;;30.00;23.25;;;;;;;;5077106;27;45441;-68
2023/11/22 02:31:24;;;;;;;;;28.00;23.75;;;;;;;;5075671;27;47355;-68
2023/11/22 02:33:49;;;;;;;;;22.25;22.00;;;;;;;;5077667;28;45359;-68
2023/11/22 02:36:14;;;;;;;;;31.00;25.67;;;;;;;;5067090;28;45425;-69
2023/11/22 02:38:40;;;;;;;;;25.00;22.00;;;;;;;;5076242;27;46963;-68
2023/11/22 02:41:05;;;;;;;;;29.67;24.00;;;;;;;;5068515;28;47193;-67
2023/11/22 02:43:30;;;;;;;;;32.00;26.00;;;;;;;;5075172;27;45371;-68
2023/11/22 02:45:56;;;;;;;;;25.00;23.33;;;;;;;;5076439;27;45571;-68
2023/11/22 02:48:21;;;;;;;;;26.67;19.67;;;;;;;;5076708;27;45370;-68
2023/11/22 02:50:46;;;;;;;;;25.67;24.33;;;;;;;;5073163;27;46796;-68
2023/11/22 02:53:12;;;;;;;;;21.50;19.25;;;;;;;;5075862;28;45466;-70
2023/11/22 02:55:37;;;;;;;;;27.25;23.75;;;;;;;;5076326;27;45250;-66
2023/11/22 02:58:02;;;;;;;;;24.50;19.00;;;;;;;;5073591;28;45547;-67
2023/11/22 03:00:29;;;;;;;;;20.00;18.33;;;;;;;;5072928;28;45431;-68
2023/11/22 03:02:54;;;;;;;;;22.25;19.00;;;;;;;;5073502;27;45495;-67
2023/11/22 03:05:20;;;;;;;;;25.75;22.75;;;;;;;;5075866;28;45394;-69
2023/11/22 03:07:45;;;;;;;;;25.25;19.00;;;;;;;;5076830;27;45291;-69
2023/11/22 03:10:11;;;;;;;;;26.00;21.67;;;;;;;;5076125;27;46261;-68
2023/11/22 03:12:36;;;;;;;;;20.00;19.00;;;;;;;;5071621;27;45818;-68
2023/11/22 03:15:02;;;;;;;;;28.50;24.75;;;;;;;;5076051;28;45418;-68
2023/11/22 03:17:30;;;;;;;;;20.00;20.00;;;;;;;;5074907;28;45491;-68
2023/11/22 03:19:56;;;;;;;;;26.25;21.25;;;;;;;;5075382;27;47452;-68
2023/11/22 03:22:22;;;;;;;;;24.50;21.75;;;;;;;;5071897;27;46006;-68
2023/11/22 03:24:47;;;;;;;;;21.75;20.00;;;;;;;;5070102;27;46197;-71
2023/11/22 03:27:12;;;;;;;;;26.00;19.50;;;;;;;;5076272;27;45719;-71
2023/11/22 03:29:37;;;;;;;;;25.67;21.00;;;;;;;;5074858;27;46533;-70
2023/11/22 03:32:03;;;;;;;;;24.50;21.75;;;;;;;;5075460;28;45508;-69
2023/11/22 03:34:28;;;;;;;;;32.50;26.00;;;;;;;;5074091;27;45458;-70
2023/11/22 03:36:53;;;;;;;;;21.00;18.67;;;;;;;;5074579;28;45771;-70
2023/11/22 03:39:19;;;;;;;;;24.67;21.33;;;;;;;;5075802;27;45564;-68
2023/11/22 03:41:45;;;;;;;;;22.50;18.00;;;;;;;;5076419;27;45442;-68
2023/11/22 03:44:10;;;;;;;;;24.50;20.00;;;;;;;;5071311;27;46015;-69
2023/11/22 03:46:36;;;;;;;;;22.33;21.00;;;;;;;;5070884;27;45498;-69
2023/11/22 03:49:02;;;;;;;;;24.50;22.50;;;;;;;;5072351;28;45731;-70
2023/11/22 03:51:28;;;;;;;;;28.00;21.00;;;;;;;;5074219;27;45386;-68
2023/11/22 03:53:53;;;;;;;;;16.67;16.00;;;;;;;;5069541;28;45303;-71
2023/11/22 03:56:19;;;;;;;;;23.50;20.25;;;;;;;;5075903;27;45538;-71
2023/11/22 03:58:44;;;;;;;;;18.25;17.00;;;;;;;;5071214;28;46325;-68
2023/11/22 04:01:09;;;;;;;;;23.00;18.00;;;;;;;;5075355;27;45310;-70
2023/11/22 04:03:34;;;;;;;;;23.33;21.00;;;;;;;;5070310;27;45400;-68
2023/11/22 04:05:59;;;;;;;;;14.00;14.00;;;;;;;;5074288;27;45299;-70
2023/11/22 04:08:25;;;;;;;;;18.00;16.67;;;;;;;;5068042;28;45359;-68
2023/11/22 04:10:50;;;;;;;;;17.00;17.00;;;;;;;;5075216;27;45309;-68
2023/11/22 04:13:15;;;;;;;;;17.33;16.33;;;;;;;;5074475;28;45416;-68
2023/11/22 04:15:41;;;;;;;;;18.75;16.50;;;;;;;;5067918;27;45638;-68
2023/11/22 04:18:06;;;;;;;;;22.00;14.00;;;;;;;;5075723;27;45505;-68
2023/11/22 04:20:31;;;;;;;;;16.50;13.50;;;;;;;;5075187;27;45385;-68
2023/11/22 04:22:57;;;;;;;;;17.25;15.00;;;;;;;;5074373;27;45568;-68
2023/11/22 04:25:23;;;;;;;;;14.25;12.00;;;;;;;;5075848;27;45361;-68
2023/11/22 04:27:48;;;;;;;;;14.75;12.00;;;;;;;;5075195;27;46523;-68
2023/11/22 04:30:14;;;;;;;;;18.00;15.50;;;;;;;;5075605;27;45349;-68
2023/11/22 04:32:39;;;;;;;;;21.50;15.50;;;;;;;;5076154;28;45472;-68
2023/11/22 04:35:05;;;;;;;;;16.67;15.00;;;;;;;;5075468;27;45640;-69
2023/11/22 04:37:32;;;;;;;;;21.25;18.25;;;;;;;;5076270;28;45398;-68
2023/11/22 04:39:57;;;;;;;;;16.75;16.00;;;;;;;;5075556;27;46214;-71
2023/11/22 04:42:22;;;;;;;;;18.00;16.33;;;;;;;;5075893;27;45347;-68
2023/11/22 04:44:47;;;;;;;;;20.75;17.25;;;;;;;;5075454;27;45404;-69
2023/11/22 04:47:13;;;;;;;;;22.33;20.67;;;;;;;;5075332;27;47140;-69
2023/11/22 04:49:38;;;;;;;;;22.75;18.50;;;;;;;;5075077;28;45556;-68
2023/11/22 04:52:03;;;;;;;;;20.33;18.00;;;;;;;;5075728;27;45141;-69
2023/11/22 04:54:28;;;;;;;;;23.00;20.75;;;;;;;;5075750;27;45588;-71
2023/11/22 04:56:53;;;;;;;;;20.67;18.33;;;;;;;;5075248;27;45624;-68
2023/11/22 04:59:19;;;;;;;;;16.67;11.33;;;;;;;;5075824;27;45226;-68
2023/11/22 05:01:44;;;;;;;;;22.25;18.50;;;;;;;;5078487;27;45417;-70
2023/11/22 05:04:10;;;;;;;;;22.50;18.50;;;;;;;;5078918;27;45349;-70
2023/11/22 05:06:35;;;;;;;;;23.50;19.00;;;;;;;;5078936;27;45851;-68
2023/11/22 05:09:00;;;;;;;;;22.75;21.25;;;;;;;;5078766;27;45286;-68
2023/11/22 05:11:26;;;;;;;;;18.50;16.25;;;;;;;;5079309;27;45217;-70
2023/11/22 05:13:51;;;;;;;;;16.00;14.75;;;;;;;;5079286;27;45398;-70
2023/11/22 05:16:17;;;;;;;;;14.33;14.33;;;;;;;;5078699;27;46500;-68
2023/11/22 05:18:42;;;;;;;;;18.50;16.00;;;;;;;;5077744;28;45501;-68
2023/11/22 05:21:07;;;;;;;;;27.00;19.00;;;;;;;;5078815;27;45575;-68
2023/11/22 05:23:33;;;;;;;;;15.33;13.33;;;;;;;;5078371;27;45426;-68
2023/11/22 05:25:59;;;;;;;;;16.75;16.25;;;;;;;;5077169;27;45969;-69
2023/11/22 05:28:25;;;;;;;;;21.00;15.00;;;;;;;;5078681;27;45357;-67
2023/11/22 05:30:50;;;;;;;;;22.00;19.25;;;;;;;;5077841;27;45357;-67
2023/11/22 05:33:15;;;;;;;;;19.00;15.33;;;;;;;;5077936;27;45543;-69
2023/11/22 05:35:41;;;;;;;;;21.75;20.00;;;;;;;;5076473;27;46100;-67
2023/11/22 05:38:06;;;;;;;;;15.25;12.75;;;;;;;;5071928;27;45464;-70
2023/11/22 05:40:32;;;;;;;;;19.25;17.75;;;;;;;;5072219;28;46233;-69
2023/11/22 05:42:58;;;;;;;;;21.00;16.75;;;;;;;;5070939;27;45451;-72
2023/11/22 05:45:23;;;;;;;;;21.25;16.75;;;;;;;;5074679;28;45582;-68
2023/11/22 05:47:48;;;;;;;;;24.75;18.50;;;;;;;;5067419;27;45566;-68
2023/11/22 05:50:14;;;;;;;;;17.00;16.33;;;;;;;;5071101;28;45425;-68
2023/11/22 05:52:39;;;;;;;;;18.50;16.75;;;;;;;;5067171;28;45484;-68
2023/11/22 05:55:05;;;;;;;;;22.00;16.67;;;;;;;;5074377;28;45412;-67
2023/11/22 05:57:30;;;;;;;;;24.00;15.75;;;;;;;;5075362;27;45416;-69
2023/11/22 05:59:56;;;;;;;;;29.00;20.75;;;;;;;;5074473;28;45465;-67
2023/11/22 06:02:21;;;;;;;;;26.25;19.00;;;;;;;;5075969;28;45772;-70
2023/11/22 06:04:46;;;;;;;;;21.50;19.00;;;;;;;;5077320;27;47496;-68
2023/11/22 06:07:11;;;;;;;;;19.33;19.00;;;;;;;;5077600;27;45409;-68
2023/11/22 06:09:37;;;;;;;;;22.25;17.50;;;;;;;;5076193;27;45425;-67
2023/11/22 06:12:02;;;;;;;;;17.00;17.00;;;;;;;;5068899;27;45421;-70
2023/11/22 06:14:27;;;;;;;;;23.75;20.75;;;;;;;;5071561;28;47001;-67
2023/11/22 06:16:52;;;;;;;;;25.00;19.67;;;;;;;;5075342;27;45684;-69
2023/11/22 06:19:17;;;;;;;;;19.33;17.67;;;;;;;;5073546;27;46482;-67
2023/11/22 06:21:42;;;;;;;;;23.33;19.33;;;;;;;;5076740;27;45624;-68
2023/11/22 06:24:09;;;;;;;;;26.00;21.00;;;;;;;;5068973;28;47292;-70
2023/11/22 06:26:34;;;;;;;;;24.00;22.00;;;;;;;;5073533;28;45578;-68
2023/11/22 06:28:59;;;;;;;;;19.00;19.00;;;;;;;;5072325;28;45479;-70
2023/11/22 06:31:25;;;;;;;;;19.25;17.25;;;;;;;;5077179;27;45321;-67
2023/11/22 06:33:52;;;;;;;;;16.00;15.67;;;;;;;;5073018;27;45251;-69
2023/11/22 06:36:18;;;;;;;;;22.75;20.25;;;;;;;;5072400;27;45452;-71
2023/11/22 06:38:43;;;;;;;;;27.00;26.75;;;;;;;;5071442;27;45258;-68
2023/11/22 06:41:08;;;;;;;;;22.33;21.00;;;;;;;;5074828;28;45382;-68
2023/11/22 06:43:33;;;;;;;;;16.00;16.00;;;;;;;;5066700;27;46591;-68
2023/11/22 06:45:59;;;;;;;;;24.67;21.33;;;;;;;;5073641;27;45411;-68
2023/11/22 06:48:24;;;;;;;;;28.75;21.75;;;;;;;;5074721;28;45571;-69
2023/11/22 06:50:49;;;;;;;;;21.33;20.67;;;;;;;;5073957;28;45583;-69
2023/11/22 06:53:19;;;;;;;;;23.00;21.67;;;;;;;;5077099;27;46152;-68
2023/11/22 06:55:45;;;;;;;;;30.00;21.75;;;;;;;;5075221;27;45560;-69
2023/11/22 06:58:11;;;;;;;;;24.75;23.50;;;;;;;;5073396;27;47092;-67
2023/11/22 07:00:36;;;;;;;;;24.75;21.50;;;;;;;;5070445;28;45548;-69
2023/11/22 07:03:01;;;;;;;;;24.25;21.00;;;;;;;;5074412;27;46311;-67
2023/11/22 07:05:26;;;;;;;;;20.33;16.33;;;;;;;;5073407;28;45437;-69
2023/11/22 07:07:54;;;;;;;;;29.00;22.25;;;;;;;;5075468;27;45507;-68
2023/11/22 07:10:20;;;;;;;;;28.00;18.50;;;;;;;;5075490;27;45321;-71
2023/11/22 07:12:45;;;;;;;;;24.75;21.50;;;;;;;;5075369;27;46577;-68
2023/11/22 07:15:11;;;;;;;;;25.00;21.00;;;;;;;;5075063;27;45389;-72
2023/11/22 07:17:36;;;;;;;;;29.25;28.50;;;;;;;;5075897;27;45178;-70
2023/11/22 07:20:01;;;;;;;;;25.50;23.50;;;;;;;;5074207;27;45506;-68
2023/11/22 07:22:26;;;;;;;;;29.50;25.00;;;;;;;;5067934;28;46138;-70
2023/11/22 07:24:52;;;;;;;;;29.67;27.67;;;;;;;;5069473;28;45634;-70
2023/11/22 07:27:18;;;;;;;;;31.75;23.00;;;;;;;;5068904;28;45976;-69
2023/11/22 07:29:44;;;;;;;;;35.00;24.50;;;;;;;;5064463;27;45477;-70
2023/11/22 07:32:09;;;;;;;;;35.75;29.00;;;;;;;;5071011;28;45939;-69
2023/11/22 07:34:34;;;;;;;;;27.75;24.00;;;;;;;;5073665;27;45710;-70
2023/11/22 07:37:00;;;;;;;;;36.50;28.25;;;;;;;;5071909;28;45271;-70
2023/11/22 07:39:27;;;;;;;;;38.25;30.75;;;;;;;;5063831;27;45986;-69
2023/11/22 07:41:52;;;;;;;;;26.50;23.75;;;;;;;;5072183;28;45892;-70
2023/11/22 07:44:18;;;;;;;;;37.25;29.00;;;;;;;;5075297;27;45463;-70
2023/11/22 07:46:44;;;;;;;;;26.00;26.00;;;;;;;;5075631;27;45227;-70
2023/11/22 07:49:09;;;;;;;;;32.75;27.00;;;;;;;;5074746;27;46293;-70
2023/11/22 07:51:34;;;;;;;;;33.50;26.75;;;;;;;;5041356;22;45421;-69
2023/11/22 07:53:59;;;;;;;;;40.33;28.00;;;;;;;;5040416;28;45434;-69
2023/11/22 07:56:25;;;;;;;;;36.00;27.00;;;;;;;;5039767;28;45422;-69
2023/11/22 07:58:50;;;;;;;;;28.75;25.50;;;;;;;;5037419;28;45442;-68
2023/11/22 08:01:15;;;;;;;;;36.00;27.33;;;;;;;;5044365;28;45756;-69
2023/11/22 08:03:45;;;;;;;;;21.67;21.67;;;;;;;;5053899;28;46108;-67
2023/11/22 08:06:10;;;;;;;;;29.25;22.25;;;;;;;;5056265;28;45407;-68
2023/11/22 08:08:39;;;;;;;;;31.00;25.00;;;;;;;;5055221;28;45622;-68
2023/11/22 08:11:04;;;;;;;;;29.75;27.00;;;;;;;;5055901;28;46600;-69
2023/11/22 08:13:30;;;;;;;;;38.25;26.75;;;;;;;;5055658;28;45446;-67
2023/11/22 08:15:55;;;;;;;;;33.25;26.75;;;;;;;;5055212;28;45374;-69
2023/11/22 08:18:21;;;;;;;;;39.00;31.00;;;;;;;;5054809;28;45484;-67
2023/11/22 08:20:47;;;;;;;;;36.25;26.25;;;;;;;;5055438;28;45404;-67
2023/11/22 08:23:14;;;;;;;;;39.50;29.50;;;;;;;;5055765;28;45812;-70
2023/11/22 08:25:39;;;;;;;;;34.75;27.00;;;;;;;;5055022;28;45454;-69
2023/11/22 08:28:07;;;;;;;;;36.67;30.00;;;;;;;;5056127;28;45346;-69
2023/11/22 08:30:35;;;;;;;;;30.25;26.25;;;;;;;;5052241;28;46508;-67
2023/11/22 08:33:00;;;;;;;;;31.00;28.50;;;;;;;;5050967;28;45375;-69
2023/11/22 08:35:26;;;;;;;;;39.75;32.00;;;;;;;;5054506;28;45433;-69
2023/11/22 08:37:51;;;;;;;;;35.25;31.00;;;;;;;;5058855;28;45434;-69
2023/11/22 08:40:20;;;;;;;;;42.25;29.25;;;;;;;;5058992;28;46486;-68
2023/11/22 08:42:45;;;;;;;;;31.50;25.00;;;;;;;;5059160;28;45525;-67
2023/11/22 08:45:11;;;;;;;;;31.75;31.75;;;;;;;;5048998;28;45319;-70
2023/11/22 08:47:37;;;;;;;;;32.25;27.50;;;;;;;;5057254;28;45683;-67
2023/11/22 08:50:03;;;;;;;;;36.25;30.25;;;;;;;;5055842;28;45648;-68
2023/11/22 08:52:30;;;;;;;;;40.50;30.75;;;;;;;;5056403;28;45497;-68
2023/11/22 08:54:55;;;;;;;;;31.75;28.50;;;;;;;;5052664;28;45516;-67
2023/11/22 08:57:21;;;;;;;;;22.33;14.00;;;;;;;;5056613;28;45699;-68
2023/11/22 08:59:47;;;;;;;;;36.50;26.50;;;;;;;;5052632;28;46331;-67
2023/11/22 09:02:13;;;;;;;;;33.75;26.25;;;;;;;;5057620;28;45378;-69
2023/11/22 09:04:38;;;;;;;;;29.00;27.50;;;;;;;;5056202;28;45462;-70
2023/11/22 09:07:03;;;;;;;;;28.75;23.50;;;;;;;;5056445;28;45433;-68
2023/11/22 09:09:30;;;;;;;;;33.75;24.75;;;;;;;;5057110;28;47258;-67
2023/11/22 09:11:59;;;;;;;;;31.25;21.00;;;;;;;;5054740;28;45456;-69
2023/11/22 09:14:24;;;;;;;;;33.50;29.25;;;;;;;;5051055;28;45473;-68
2023/11/22 09:16:55;;;;;;;;;35.25;27.25;;;;;;;;5056893;28;45605;-67
2023/11/22 09:19:21;;;;;;;;;26.50;23.00;;;;;;;;5055755;28;46410;-68
2023/11/22 09:21:46;;;;;;;;;31.25;25.75;;;;;;;;5056827;28;45329;-68
2023/11/22 09:24:12;;;;;;;;;33.67;26.00;;;;;;;;5056363;28;45541;-67
2023/11/22 09:26:37;;;;;;;;;29.00;25.50;;;;;;;;5054745;28;45503;-70
2023/11/22 09:29:03;;;;;;;;;28.67;23.00;;;;;;;;5056086;28;46517;-68
2023/11/22 09:31:28;;;;;;;;;33.75;25.75;;;;;;;;5057550;28;45280;-67
2023/11/22 09:33:53;;;;;;;;;40.00;27.67;;;;;;;;5058679;28;45514;-68
2023/11/22 09:36:19;;;;;;;;;31.33;26.00;;;;;;;;5058526;28;45204;-67
2023/11/22 09:38:44;;;;;;;;;29.00;25.00;;;;;;;;5058175;28;46698;-67
2023/11/22 09:41:10;;;;;;;;;28.25;24.25;;;;;;;;5058261;28;45299;-68
2023/11/22 09:43:35;;;;;;;;;28.75;26.50;;;;;;;;5058425;28;45327;-70
2023/11/22 09:46:00;;;;;;;;;29.25;24.50;;;;;;;;5057016;28;45459;-67
2023/11/22 09:48:27;;;;;;;;;26.67;23.33;;;;;;;;5057926;28;46696;-68
2023/11/22 09:51:10;;;;;;;;;30.00;25.00;;;;;;;;5057502;28;45465;-68
2023/11/22 09:53:45;;;;;;;;;31.50;28.75;;;;;;;;5052502;28;45549;-68
2023/11/22 09:56:10;;;;;;;;;34.75;27.75;;;;;;;;5047429;28;46263;-70
2023/11/22 09:58:36;;;;;;;;;28.25;22.50;;;;;;;;5057795;28;45818;-68
2023/11/22 10:01:03;;;;;;;;;32.50;25.25;;;;;;;;5057681;28;45796;-69
2023/11/22 10:03:28;;;;;;;;;28.50;21.00;;;;;;;;5057858;28;45402;-67
2023/11/22 10:05:56;;;;;;;;;25.25;19.50;;;;;;;;5058055;28;45362;-68
2023/11/22 10:08:22;;;;;;;;;33.75;26.00;;;;;;;;5054354;28;47451;-68
2023/11/22 10:10:51;;;;;;;;;32.75;28.25;;;;;;;;5049099;28;45517;-68
2023/11/22 10:13:16;;;;;;;;;34.75;26.25;;;;;;;;5052557;28;45290;-68
2023/11/22 10:15:41;;;;;;;;;30.33;25.00;;;;;;;;5054291;28;45448;-67
2023/11/22 10:18:07;;;;;;;;;25.00;21.25;;;;;;;;5054219;28;45699;-68
2023/11/22 10:20:39;;;;;;;;;24.25;24.25;;;;;;;;5054697;28;45409;-67
2023/11/22 10:23:08;;;;;;;;;26.75;23.50;;;;;;;;5056056;28;45379;-67
2023/11/22 10:25:33;;;;;;;;;29.00;24.75;;;;;;;;5051442;28;45472;-67
2023/11/22 10:27:59;;;;;;;;;31.25;26.25;;;;;;;;5055473;28;46252;-70
2023/11/22 10:30:26;;;;;;;;;26.50;24.25;;;;;;;;5053277;28;45395;-70
2023/11/22 10:32:52;;;;;;;;;27.75;21.25;;;;;;;;5054745;28;45556;-70
2023/11/22 10:35:22;;;;;;;;;29.50;25.25;;;;;;;;5054094;28;45551;-69
2023/11/22 10:37:47;;;;;;;;;26.50;24.50;;;;;;;;5048573;28;46538;-68
2023/11/22 10:40:13;;;;;;;;;26.33;21.00;;;;;;;;5055615;28;45528;-69
2023/11/22 10:42:39;;;;;;;;;21.50;20.25;;;;;;;;5053119;28;45432;-68
2023/11/22 10:45:07;;;;;;;;;22.25;20.00;;;;;;;;5046199;28;45895;-68
2023/11/22 10:47:37;;;;;;;;;32.00;21.00;;;;;;;;5052629;28;47523;-67
2023/11/22 10:50:02;;;;;;;;;28.25;22.25;;;;;;;;5050114;28;45459;-68
2023/11/22 10:52:29;;;;;;;;;33.25;22.00;;;;;;;;5046546;28;45506;-69
2023/11/22 10:55:01;;;;;;;;;23.25;21.75;;;;;;;;5054482;28;45478;-69
2023/11/22 10:57:27;;;;;;;;;26.25;20.75;;;;;;;;5052525;28;46828;-67
2023/11/22 10:59:54;;;;;;;;;24.25;21.00;;;;;;;;5053950;28;45580;-68
2023/11/22 11:02:20;;;;;;;;;19.75;17.75;;;;;;;;5054507;28;45407;-67
2023/11/22 11:05:03;;;;;;;;;28.00;21.25;;;;;;;;5054211;28;45386;-69
2023/11/22 11:07:30;;;;;;;;;18.25;15.75;;;;;;;;5051964;28;46347;-67
2023/11/22 11:09:57;;;;;;;;;17.50;16.75;;;;;;;;5053324;28;45437;-68
2023/11/22 11:12:22;;;;;;;;;21.50;16.00;;;;;;;;5051740;28;45435;-69
2023/11/22 11:14:49;;;;;;;;;16.50;14.75;;;;;;;;5052973;28;45595;-69
2023/11/22 11:17:15;;;;;;;;;21.50;17.75;;;;;;;;5055076;28;46972;-69
2023/11/22 11:19:41;;;;;;;;;17.75;15.25;;;;;;;;5054210;28;45486;-67
2023/11/22 11:22:13;;;;;;;;;17.75;16.75;;;;;;;;5054080;28;45357;-68
2023/11/22 11:24:39;;;;;;;;;16.75;16.75;;;;;;;;5052567;28;45617;-69
2023/11/22 11:27:05;;;;;;;;;23.00;17.50;;;;;;;;5053880;28;45466;-69
2023/11/22 11:29:31;;;;;;;;;18.25;16.50;;;;;;;;5051740;28;45509;-68
2023/11/22 11:31:57;;;;;;;;;14.75;13.75;;;;;;;;5054447;28;45552;-68
2023/11/22 11:34:23;;;;;;;;;20.00;16.00;;;;;;;;5053876;28;45527;-69
2023/11/22 11:36:53;;;;;;;;;17.75;14.25;;;;;;;;5053424;28;45964;-68
2023/11/22 11:39:26;;;;;;;;;16.25;14.75;;;;;;;;5054669;28;45203;-69
2023/11/22 11:41:52;;;;;;;;;25.75;19.50;;;;;;;;5053646;28;46801;-68
2023/11/22 11:44:19;;;;;;;;;18.25;17.00;;;;;;;;5052945;28;45557;-69
2023/11/22 11:46:44;;;;;;;;;14.25;12.25;;;;;;;;5046943;28;46279;-68
2023/11/22 11:49:12;;;;;;;;;13.67;11.00;;;;;;;;5054583;28;45511;-68
2023/11/22 11:51:38;;;;;;;;;15.50;12.00;;;;;;;;5053408;28;45567;-68
2023/11/22 11:54:04;;;;;;;;;10.25;9.25;;;;;;;;5053046;28;46630;-68
2023/11/22 11:56:29;;;;;;;;;13.50;10.75;;;;;;;;5053332;28;46227;-67
2023/11/22 11:58:58;;;;;;;;;13.00;11.25;;;;;;;;5054017;28;45430;-68
2023/11/22 12:01:23;;;;;;;;;10.25;10.25;;;;;;;;5053661;28;46963;-67
2023/11/22 12:03:49;;;;;;;;;9.33;9.33;;;;;;;;5054134;28;45433;-67
2023/11/22 12:06:17;;;;;;;;;10.00;9.00;;;;;;;;5052511;28;46294;-68
2023/11/22 12:08:43;;;;;;;;;13.75;8.25;;;;;;;;5052695;28;45513;-68
2023/11/22 12:11:08;;;;;;;;;8.67;8.67;;;;;;;;5056974;28;45325;-70
2023/11/22 12:13:34;;;;;;;;;11.50;9.00;;;;;;;;5058048;28;45387;-68
2023/11/22 12:16:00;;;;;;;;;8.00;5.75;;;;;;;;5055664;28;45491;-69
2023/11/22 12:18:25;;;;;;;;;11.50;10.00;;;;;;;;5056766;28;45961;-68
2023/11/22 12:20:54;;;;;;;;;10.25;7.75;;;;;;;;5057682;28;45284;-68
2023/11/22 12:23:20;;;;;;;;;5.00;5.00;;;;;;;;5056067;28;45553;-69
2023/11/22 12:25:45;;;;;;;;;5.33;5.33;;;;;;;;5053999;28;47361;-69
2023/11/22 12:28:10;;;;;;;;;8.33;5.00;;;;;;;;5056218;28;46371;-68
2023/11/22 12:30:36;;;;;;;;;8.00;6.00;;;;;;;;5056024;28;45554;-68
2023/11/22 12:33:02;;;;;;;;;6.33;5.00;;;;;;;;5057490;28;45349;-68
2023/11/22 12:35:27;;;;;;;;;8.00;6.25;;;;;;;;5056805;28;47095;-70
2023/11/22 12:37:54;;;;;;;;;7.67;7.67;;;;;;;;5056577;28;45422;-68
2023/11/22 12:40:20;;;;;;;;;7.25;5.50;;;;;;;;5057846;28;45467;-69
2023/11/22 12:42:47;;;;;;;;;6.50;6.50;;;;;;;;5054329;28;45555;-68
2023/11/22 12:45:25;;;;;;;;;8.00;6.33;;;;;;;;5056551;28;46215;-69
2023/11/22 12:47:50;;;;;;;;;11.00;9.33;;;;;;;;5055424;28;45579;-69
2023/11/22 12:50:31;;;;;;;;;12.00;8.67;;;;;;;;5055009;28;45491;-68
2023/11/22 12:52:57;;;;;;;;;8.00;5.67;;;;;;;;5052856;28;45556;-71
2023/11/22 12:55:22;;;;;;;;;6.67;6.67;;;;;;;;5056357;28;46894;-70
2023/11/22 12:57:59;;;;;;;;;5.00;5.00;;;;;;;;5054295;28;45463;-69
2023/11/22 13:00:24;;;;;;;;;3.67;3.67;;;;;;;;5055116;28;45585;-68
2023/11/22 13:02:49;;;;;;;;;7.33;4.00;;;;;;;;5057165;28;45307;-69
2023/11/22 13:05:16;;;;;;;;;16.00;10.00;;;;;;;;5055282;28;46430;-69
2023/11/22 13:07:43;;;;;;;;;10.50;9.00;;;;;;;;5055248;28;47305;-69
2023/11/22 13:10:09;;;;;;;;;4.00;4.00;;;;;;;;5056836;28;45531;-69
2023/11/22 13:12:34;;;;;;;;;7.00;5.00;;;;;;;;5055586;28;46429;-69
2023/11/22 13:14:59;;;;;;;;;5.00;5.00;;;;;;;;5056668;28;45675;-69
2023/11/22 13:17:25;;;;;;;;;3.67;3.00;;;;;;;;5056274;28;45415;-71
2023/11/22 13:19:50;;;;;;;;;5.00;4.00;;;;;;;;5055710;28;45580;-69
2023/11/22 13:22:15;;;;;;;;;6.33;5.00;;;;;;;;5055586;28;45506;-70
2023/11/22 13:24:40;;;;;;;;;10.00;7.00;;;;;;;;5052821;28;45602;-69
2023/11/22 13:27:09;;;;;;;;;7.00;7.00;;;;;;;;5052982;28;46323;-69
2023/11/22 13:29:34;;;;;;;;;8.25;5.00;;;;;;;;5051555;28;45604;-71
2023/11/22 13:31:59;;;;;;;;;7.25;7.25;;;;;;;;5056630;28;45462;-72
2023/11/22 13:34:24;;;;;;;;;8.00;7.00;;;;;;;;5053400;28;47381;-69
2023/11/22 13:36:50;;;;;;;;;8.33;8.33;;;;;;;;5055013;28;45363;-69
2023/11/22 13:39:15;;;;;;;;;10.25;7.00;;;;;;;;5053252;28;45550;-69
2023/11/22 13:41:40;;;;;;;;;11.67;7.00;;;;;;;;5055093;28;45494;-71
2023/11/22 13:44:05;;;;;;;;;7.25;7.25;;;;;;;;5051632;28;47157;-69
2023/11/22 13:46:31;;;;;;;;;9.33;5.00;;;;;;;;5050642;28;45363;-69
2023/11/22 13:48:57;;;;;;;;;8.00;5.00;;;;;;;;5053872;28;45819;-69
2023/11/22 13:51:24;;;;;;;;;5.00;5.00;;;;;;;;5054442;28;45457;-68
2023/11/22 13:53:53;;;;;;;;;8.33;4.67;;;;;;;;5053083;28;45665;-68
2023/11/22 13:56:18;;;;;;;;;8.33;4.67;;;;;;;;5055551;28;45603;-68
2023/11/22 13:58:43;;;;;;;;;5.33;4.00;;;;;;;;5056028;28;45364;-69
2023/11/22 14:01:13;;;;;;;;;5.50;3.75;;;;;;;;5054756;28;45903;-70
2023/11/22 14:03:39;;;;;;;;;9.00;5.00;;;;;;;;5053939;28;46539;-70
2023/11/22 14:06:04;;;;;;;;;7.67;7.67;;;;;;;;5052066;28;45575;-67
2023/11/22 14:08:30;;;;;;;;;12.00;8.50;;;;;;;;5055216;28;45227;-68
2023/11/22 14:10:55;;;;;;;;;11.00;9.00;;;;;;;;5050025;28;46357;-68
2023/11/22 14:13:21;;;;;;;;;8.00;8.00;;;;;;;;5051337;28;45642;-70